Time;durP1;ratioP1;P1;durP2;ratioP2;P2;SDS_P1;SDS_P2;PMS_P1;PMS_P2;Temp;Humidity;BMP_temperature;BMP_pressure;BME280_temperature;BME280_humidity;BME280_pressure;Samples;Min_cycle;Max_cycle;Signal;HPM_P1;HPM_P2
2022/06/18 00:00:51;;;;;;;;;;;;;;;20.90;63.03;100975.16;7407350;19;1776;-48
2022/06/18 00:03:20;;;;;;;;;;;;;;;20.91;63.02;100992.97;7407436;19;1584;-48
2022/06/18 00:05:49;;;;;;;;;;;;;;;20.91;63.02;100990.28;7406745;19;1932;-48
2022/06/18 00:08:19;;;;;;;;;;;;;;;20.88;62.92;100977.13;7406586;19;1827;-49
2022/06/18 00:10:47;;;;;;;;;;;;;;;20.83;62.76;100958.75;7408493;19;1124;-47
2022/06/18 00:16:11;;;;;;;;;;;;;;;20.78;62.69;100993.25;7408433;19;1951;-48
2022/06/18 00:18:40;;;;;;;;;;;;;;;20.84;62.56;100991.84;7405111;19;1865;-48
2022/06/18 00:21:09;;;;;;;;;;;;;;;20.82;62.33;100983.91;7405939;19;1930;-48
2022/06/18 00:23:39;;;;;;;;;;;;;;;20.74;62.80;100999.91;7406891;19;1928;-48
2022/06/18 00:26:07;;;;;;;;;;;;;;;20.76;62.54;101006.00;7407636;19;1031;-48
2022/06/18 00:28:36;;;;;;;;;;;;;;;20.83;62.63;100996.38;7406444;19;1879;-48
2022/06/18 00:31:04;;;;;;;;;;;;;;;20.63;63.45;101011.66;7406229;19;1838;-49
2022/06/18 00:33:39;;;;;;;;;;;;;;;20.69;63.31;101025.50;7406749;19;1832;-48
2022/06/18 00:36:08;;;;;;;;;;;;;;;20.76;62.98;101006.00;7405505;19;1613;-49
2022/06/18 00:38:39;;;;;;;;;;;;;;;20.73;63.11;101010.78;7404332;19;1862;-48
2022/06/18 00:41:08;;;;;;;;;;;;;;;20.82;62.92;101016.16;7406095;19;953;-48
2022/06/18 00:43:38;;;;;;;;;;;;;;;20.79;63.15;101007.53;7405581;19;2037;-48
2022/06/18 00:46:08;;;;;;;;;;;;;;;20.74;62.96;101018.72;7405209;19;1993;-48
2022/06/18 00:48:41;;;;;;;;;;;;;;;20.69;63.60;101012.94;7405920;19;1946;-47
2022/06/18 00:51:12;;;;;;;;;;;;;;;20.77;63.31;101025.63;7405038;19;2042;-48
2022/06/18 00:53:44;;;;;;;;;;;;;;;20.81;63.18;101010.94;7405776;19;1759;-48
2022/06/18 00:56:14;;;;;;;;;;;;;;;20.79;63.23;101029.91;7406352;19;1825;-48
2022/06/18 00:58:46;;;;;;;;;;;;;;;20.85;63.04;101017.75;7404725;19;1879;-48
2022/06/18 01:01:18;;;;;;;;;;;;;;;20.97;63.03;101016.59;7405123;19;1814;-49
2022/06/18 01:03:50;;;;;;;;;;;;;;;20.96;62.84;101022.97;7404863;19;1519;-48
2022/06/18 01:06:20;;;;;;;;;;;;;;;20.88;62.97;101014.75;7404476;19;1808;-48
2022/06/18 01:08:49;;;;;;;;;;;;;;;20.94;63.14;101024.09;7405271;19;1790;-48
2022/06/18 01:11:19;;;;;;;;;;;;;;;20.96;62.68;101017.59;7406303;19;1918;-49
2022/06/18 01:13:48;;;;;;;;;;;;;;;21.03;62.92;101017.88;7403751;19;1684;-48
2022/06/18 01:16:18;;;;;;;;;;;;;;;21.02;62.72;101005.41;7405595;19;1789;-50
2022/06/18 01:18:50;;;;;;;;;;;;;;;21.05;62.65;101005.97;7404334;19;1879;-49
2022/06/18 01:21:24;;;;;;;;;;;;;;;21.12;62.44;101006.25;7403544;19;1814;-49
2022/06/18 01:23:55;;;;;;;;;;;;;;;21.12;62.77;101018.84;7404129;19;1585;-48
2022/06/18 01:26:26;;;;;;;;;;;;;;;21.02;62.83;101021.53;7405991;19;1579;-49
2022/06/18 01:28:54;;;;;;;;;;;;;;;20.95;62.94;101006.97;7405393;19;1666;-49
2022/06/18 01:31:22;;;;;;;;;;;;;;;21.00;63.01;100996.66;7404972;19;1772;-48
2022/06/18 01:33:51;;;;;;;;;;;;;;;21.11;62.78;101004.56;7404501;19;1743;-48
2022/06/18 01:36:19;;;;;;;;;;;;;;;20.95;63.04;100991.72;7405022;19;1775;-48
2022/06/18 01:38:48;;;;;;;;;;;;;;;21.13;63.09;101001.72;7403611;19;1853;-48
2022/06/18 01:44:04;;;;;;;;;;;;;;;21.27;62.83;101003.97;7403550;19;1524;-47
2022/06/18 01:46:33;;;;;;;;;;;;;;;21.30;62.55;101005.50;7404532;19;1680;-47
2022/06/18 01:49:01;;;;;;;;;;;;;;;21.22;63.08;100998.16;7404661;19;1458;-47
2022/06/18 01:51:32;;;;;;;;;;;;;;;21.13;63.19;100985.56;7400735;19;1606;-47
2022/06/18 01:54:02;;;;;;;;;;;;;;;21.12;63.26;101000.03;7403866;19;1801;-47
2022/06/18 01:56:32;;;;;;;;;;;;;;;21.14;63.13;101000.72;7404174;19;1850;-48
2022/06/18 01:59:07;;;;;;;;;;;;;;;21.16;63.28;100990.69;7402606;19;1858;-48
2022/06/18 02:01:38;;;;;;;;;;;;;;;21.13;63.04;101007.97;7394220;19;3337;-62
2022/06/18 02:04:06;;;;;;;;;;;;;;;21.13;63.38;101015.16;7406263;19;1520;-62
2022/06/18 02:06:37;;;;;;;;;;;;;;;21.02;63.70;101035.00;7402707;19;1352;-62
2022/06/18 02:09:07;;;;;;;;;;;;;;;20.92;64.02;101043.06;7405306;19;1536;-61
2022/06/18 02:11:35;;;;;;;;;;;;;;;20.90;63.90;101050.41;7404424;19;1894;-61
2022/06/18 02:14:08;;;;;;;;;;;;;;;20.79;64.31;101037.97;7402507;19;1458;-61
2022/06/18 02:16:38;;;;;;;;;;;;;;;20.82;64.65;101055.66;7406552;19;1319;-61
2022/06/18 02:19:07;;;;;;;;;;;;;;;20.97;64.16;101046.19;7406129;19;1873;-62
2022/06/18 02:21:39;;;;;;;;;;;;;;;21.00;64.24;101059.31;7403632;19;1354;-62
2022/06/18 02:24:08;;;;;;;;;;;;;;;20.97;64.13;101059.63;7404101;19;1896;-62
2022/06/18 02:26:39;;;;;;;;;;;;;;;21.03;63.75;101056.38;7404547;19;1397;-61
2022/06/18 02:29:16;;;;;;;;;;;;;;;20.83;64.60;101070.75;7404997;19;1365;-62
2022/06/18 02:31:45;;;;;;;;;;;;;;;20.80;64.73;101063.00;7405703;19;1353;-61
2022/06/18 02:34:16;;;;;;;;;;;;;;;20.81;64.40;101072.75;7406160;19;1378;-61
2022/06/18 02:36:45;;;;;;;;;;;;;;;20.86;64.12;101073.19;7405975;19;1335;-61
2022/06/18 02:39:16;;;;;;;;;;;;;;;20.89;63.92;101072.06;7401450;19;1857;-61
2022/06/18 02:41:45;;;;;;;;;;;;;;;20.78;64.31;101078.41;7405939;19;1365;-62
2022/06/18 02:44:16;;;;;;;;;;;;;;;20.62;64.89;101090.56;7403836;19;1335;-61
2022/06/18 02:46:44;;;;;;;;;;;;;;;20.60;64.84;101092.53;7406204;19;1596;-61
2022/06/18 02:49:15;;;;;;;;;;;;;;;20.65;64.90;101106.41;7404898;19;1529;-61
2022/06/18 02:51:43;;;;;;;;;;;;;;;20.63;64.91;101119.13;7406024;19;1529;-61
2022/06/18 02:54:12;;;;;;;;;;;;;;;20.78;64.50;101116.06;7404098;19;1547;-61
2022/06/18 02:56:43;;;;;;;;;;;;;;;20.88;64.64;101129.50;7404444;19;1573;-61
2022/06/18 02:59:11;;;;;;;;;;;;;;;20.78;64.78;101119.56;7400066;19;1838;-61
2022/06/18 03:01:42;;;;;;;;;;;;;;;20.96;65.00;101135.88;7401271;19;1606;-61
2022/06/18 03:04:11;;;;;;;;;;;;;;;20.80;65.61;101112.22;7401919;19;1570;-61
2022/06/18 03:06:39;;;;;;;;;;;;;;;20.88;65.48;101111.53;7405198;19;1472;-61
2022/06/18 03:09:10;;;;;;;;;;;;;;;20.93;65.30;101129.91;7403231;19;1574;-59
2022/06/18 03:14:20;;;;;;;;;;;;;;;21.05;65.00;101118.91;7402857;19;1558;-59
2022/06/18 03:16:51;;;;;;;;;;;;;;;21.00;65.37;101113.09;7403209;19;1336;-59
2022/06/18 03:19:26;;;;;;;;;;;;;;;20.96;65.77;101119.75;7404506;19;1855;-59
2022/06/18 03:21:58;;;;;;;;;;;;;;;20.97;65.86;101105.31;7404998;19;1496;-59
2022/06/18 03:24:29;;;;;;;;;;;;;;;20.87;66.74;101104.47;7402485;19;1511;-59
2022/06/18 03:26:58;;;;;;;;;;;;;;;20.86;66.69;101124.25;7403161;19;1435;-59
2022/06/18 03:29:26;;;;;;;;;;;;;;;20.82;66.89;101112.09;7403841;19;1533;-59
2022/06/18 03:31:57;;;;;;;;;;;;;;;20.89;66.31;101107.88;7403640;19;1339;-59
2022/06/18 03:34:25;;;;;;;;;;;;;;;21.06;65.97;101106.31;7400313;19;1674;-59
2022/06/18 03:36:53;;;;;;;;;;;;;;;21.03;66.21;101125.44;7402878;19;1605;-59
2022/06/18 03:39:22;;;;;;;;;;;;;;;21.01;66.01;101100.53;7403789;19;1859;-59
2022/06/18 03:41:50;;;;;;;;;;;;;;;20.94;66.57;101127.09;7403635;19;1527;-59
2022/06/18 03:44:18;;;;;;;;;;;;;;;21.00;66.08;101131.06;7401328;19;1333;-59
2022/06/18 03:46:47;;;;;;;;;;;;;;;20.83;67.14;101129.91;7403802;19;1684;-59
2022/06/18 03:49:22;;;;;;;;;;;;;;;20.79;67.17;101115.91;7402356;19;1555;-59
2022/06/18 03:51:50;;;;;;;;;;;;;;;20.89;67.41;101132.06;7402234;19;1727;-59
2022/06/18 03:54:18;;;;;;;;;;;;;;;20.98;66.30;101143.81;7402752;19;1642;-59
2022/06/18 03:56:47;;;;;;;;;;;;;;;20.89;67.02;101120.44;7400455;19;1754;-59
2022/06/18 03:59:15;;;;;;;;;;;;;;;20.93;66.88;101144.25;7397635;19;1869;-58
2022/06/18 04:01:44;;;;;;;;;;;;;;;20.88;66.33;101143.78;7396873;19;1280;-58
2022/06/18 04:04:13;;;;;;;;;;;;;;;20.90;65.74;101146.34;7401518;19;1301;-59
2022/06/18 04:06:45;;;;;;;;;;;;;;;20.89;65.69;101145.50;7403725;19;1478;-58
2022/06/18 04:09:13;;;;;;;;;;;;;;;21.01;65.59;101139.00;7403378;19;1676;-58
2022/06/18 04:11:42;;;;;;;;;;;;;;;21.14;64.82;101146.78;7402733;19;1315;-57
2022/06/18 04:14:10;;;;;;;;;;;;;;;21.13;64.62;101155.00;7400800;19;1536;-58
2022/06/18 04:16:39;;;;;;;;;;;;;;;21.15;64.28;101150.31;7408327;19;1313;-58
2022/06/18 04:19:08;;;;;;;;;;;;;;;21.14;64.26;101152.16;7409529;19;1846;-58
2022/06/18 04:21:36;;;;;;;;;;;;;;;21.00;64.54;101152.59;7409684;19;1286;-60
2022/06/18 04:24:07;;;;;;;;;;;;;;;20.87;64.25;101147.47;7407953;19;1762;-60
2022/06/18 04:26:36;;;;;;;;;;;;;;;20.78;63.88;101167.13;7410088;19;1318;-59
2022/06/18 04:29:04;;;;;;;;;;;;;;;20.70;64.25;101166.97;7409088;19;1359;-57
2022/06/18 04:31:33;;;;;;;;;;;;;;;20.77;63.90;101171.66;7408917;19;1372;-59
2022/06/18 04:34:01;;;;;;;;;;;;;;;20.84;63.65;101180.00;7408619;19;1471;-59
2022/06/18 04:36:34;;;;;;;;;;;;;;;20.99;63.26;101177.75;7409542;19;1412;-59
2022/06/18 04:39:02;;;;;;;;;;;;;;;21.03;62.95;101179.22;7408626;19;1849;-59
2022/06/18 04:41:33;;;;;;;;;;;;;;;21.06;62.73;101181.59;7408261;19;1518;-59
2022/06/18 04:44:02;;;;;;;;;;;;;;;21.04;62.46;101176.34;7409388;19;1505;-59
2022/06/18 04:46:30;;;;;;;;;;;;;;;21.08;62.47;101186.84;7409919;19;1534;-59
2022/06/18 04:48:59;;;;;;;;;;;;;;;21.11;62.34;101200.00;7408142;19;1455;-59
2022/06/18 04:51:27;;;;;;;;;;;;;;;21.14;62.40;101191.66;7409615;19;1513;-59
2022/06/18 04:53:55;;;;;;;;;;;;;;;21.12;62.11;101205.25;7407842;19;1601;-59
2022/06/18 04:56:24;;;;;;;;;;;;;;;21.04;62.26;101197.88;7408255;19;1625;-59
2022/06/18 04:58:55;;;;;;;;;;;;;;;21.16;62.20;101201.28;7409224;19;1853;-59
2022/06/18 05:01:29;;;;;;;;;;;;;;;21.07;62.03;101207.53;7407688;19;1601;-61
2022/06/18 05:03:58;;;;;;;;;;;;;;;21.18;62.12;101182.31;7407998;19;1728;-63
2022/06/18 05:06:26;;;;;;;;;;;;;;;21.16;62.11;101205.81;7407778;19;1329;-60
2022/06/18 05:08:54;;;;;;;;;;;;;;;21.16;62.19;101200.44;7402894;19;1370;-59
2022/06/18 05:11:23;;;;;;;;;;;;;;;21.20;61.69;101202.72;7406546;19;1777;-59
2022/06/18 05:13:51;;;;;;;;;;;;;;;21.26;61.66;101206.69;7406742;19;1488;-66
2022/06/18 05:16:23;;;;;;;;;;;;;;;21.27;61.93;101203.03;7408609;19;1677;-61
2022/06/18 05:18:51;;;;;;;;;;;;;;;21.38;62.50;101200.19;7408436;19;1254;-67
2022/06/18 05:21:19;;;;;;;;;;;;;;;21.58;62.24;101210.97;7405588;19;1902;-62
2022/06/18 05:23:48;;;;;;;;;;;;;;;21.59;62.30;101215.38;7405184;19;1528;-61
2022/06/18 05:26:17;;;;;;;;;;;;;;;21.60;62.30;101211.69;7408017;19;1538;-63
2022/06/18 05:28:45;;;;;;;;;;;;;;;21.71;62.08;101222.31;7407953;19;1630;-60
2022/06/18 05:31:13;;;;;;;;;;;;;;;21.73;62.43;101236.50;7407226;19;1767;-65
2022/06/18 05:33:44;;;;;;;;;;;;;;;21.65;62.40;101230.97;7407567;19;1620;-65
2022/06/18 05:36:19;;;;;;;;;;;;;;;21.62;62.46;101229.38;7406652;19;1755;-65
2022/06/18 05:38:49;;;;;;;;;;;;;;;21.62;62.95;101232.09;7407662;19;1430;-63
2022/06/18 05:41:17;;;;;;;;;;;;;;;21.72;62.76;101232.09;7405671;19;1836;-69
2022/06/18 05:43:46;;;;;;;;;;;;;;;21.67;62.72;101220.91;7408211;19;1655;-66
2022/06/18 05:46:14;;;;;;;;;;;;;;;21.72;62.79;101229.38;7405803;19;1664;-64
2022/06/18 05:48:45;;;;;;;;;;;;;;;21.74;63.56;101234.63;7407186;19;1675;-61
2022/06/18 05:51:14;;;;;;;;;;;;;;;21.76;63.41;101236.19;7406198;19;1783;-61
2022/06/18 05:53:42;;;;;;;;;;;;;;;21.82;63.70;101224.84;7406585;19;1652;-64
2022/06/18 05:56:11;;;;;;;;;;;;;;;21.92;63.18;101246.38;7407231;19;1307;-63
2022/06/18 05:58:39;;;;;;;;;;;;;;;21.98;63.55;101235.03;7407379;19;1448;-62
2022/06/18 06:01:08;;;;;;;;;;;;;;;22.08;63.33;101226.94;7403168;19;1872;-63
2022/06/18 06:03:36;;;;;;;;;;;;;;;22.05;62.79;101248.78;7406469;19;1605;-65
2022/06/18 06:06:07;;;;;;;;;;;;;;;21.93;63.23;101252.63;7404113;19;1466;-65
2022/06/18 06:08:36;;;;;;;;;;;;;;;21.84;63.24;101243.56;7406063;19;1405;-66
2022/06/18 06:13:45;;;;;;;;;;;;;;;21.81;63.31;101238.47;7405299;19;1511;-63
2022/06/18 06:16:14;;;;;;;;;;;;;;;21.80;62.40;101240.28;7405736;19;1603;-63
2022/06/18 06:18:42;;;;;;;;;;;;;;;21.87;62.39;101248.66;7403772;19;1907;-65
2022/06/18 06:21:13;;;;;;;;;;;;;;;21.81;62.34;101270.78;7404385;19;1864;-66
2022/06/18 06:23:42;;;;;;;;;;;;;;;21.76;62.63;101254.19;7405772;19;1403;-63
2022/06/18 06:26:15;;;;;;;;;;;;;;;21.78;62.68;101238.75;7406181;19;1241;-65
2022/06/18 06:28:44;;;;;;;;;;;;;;;21.77;62.49;101245.97;7405651;19;1497;-63
2022/06/18 06:31:13;;;;;;;;;;;;;;;21.78;62.36;101249.50;7404617;19;1467;-65
2022/06/18 06:33:42;;;;;;;;;;;;;;;21.72;62.62;101248.22;7405418;19;1612;-63
2022/06/18 06:36:15;;;;;;;;;;;;;;;21.79;62.28;101244.00;7404125;19;1208;-63
2022/06/18 06:38:43;;;;;;;;;;;;;;;21.84;62.37;101262.41;7403860;19;1693;-66
2022/06/18 06:41:14;;;;;;;;;;;;;;;21.78;62.43;101239.59;7404910;19;1853;-66
2022/06/18 06:43:42;;;;;;;;;;;;;;;21.87;62.50;101253.22;7406461;19;1620;-66
2022/06/18 06:46:13;;;;;;;;;;;;;;;21.88;62.48;101255.75;7406122;19;1364;-65
2022/06/18 06:48:41;;;;;;;;;;;;;;;21.97;61.44;101240.59;7405693;19;1566;-63
2022/06/18 06:51:13;;;;;;;;;;;;;;;21.93;62.09;101252.63;7403018;19;1507;-63
2022/06/18 06:53:44;;;;;;;;;;;;;;;21.93;62.20;101258.03;7405053;19;1549;-65
2022/06/18 06:58:54;;;;;;;;;;;;;;;22.01;60.87;101266.22;7404637;19;1363;-63
2022/06/18 07:01:22;;;;;;;;;;;;;;;22.04;60.29;101260.53;7404094;19;1865;-65
2022/06/18 07:03:51;;;;;;;;;;;;;;;22.06;60.00;101253.16;7404315;19;1680;-61
2022/06/18 07:06:19;;;;;;;;;;;;;;;22.14;59.73;101247.06;7403795;19;1887;-66
2022/06/18 07:08:50;;;;;;;;;;;;;;;22.07;60.96;101260.28;7404945;19;1528;-62
2022/06/18 07:11:20;;;;;;;;;;;;;;;22.11;61.12;101261.69;7405422;19;1593;-64
2022/06/18 07:13:48;;;;;;;;;;;;;;;22.10;60.38;101269.91;7402486;19;1595;-63
2022/06/18 07:16:18;;;;;;;;;;;;;;;22.05;61.00;101254.19;7403628;19;1457;-63
2022/06/18 07:18:49;;;;;;;;;;;;;;;22.00;61.13;101256.44;7404105;19;1729;-63
2022/06/18 07:21:19;;;;;;;;;;;;;;;21.99;61.27;101257.44;7401930;19;1865;-63
2022/06/18 07:23:47;;;;;;;;;;;;;;;22.01;60.86;101239.31;7403231;19;1638;-63
2022/06/18 07:26:19;;;;;;;;;;;;;;;22.07;60.66;101260.28;7404074;19;1024;-63
2022/06/18 07:28:48;;;;;;;;;;;;;;;22.08;60.73;101250.34;7404152;19;1319;-63
2022/06/18 07:31:18;;;;;;;;;;;;;;;22.07;61.34;101254.03;7404216;19;1736;-63
2022/06/18 07:33:48;;;;;;;;;;;;;;;22.16;61.09;101275.59;7402235;19;1463;-63
2022/06/18 07:36:16;;;;;;;;;;;;;;;22.20;60.87;101260.81;7403275;19;1432;-62
2022/06/18 07:38:44;;;;;;;;;;;;;;;22.28;60.72;101268.19;7404093;19;1591;-63
2022/06/18 07:41:14;;;;;;;;;;;;;;;22.34;61.08;101264.06;7401468;19;1861;-62
2022/06/18 07:43:47;;;;;;;;;;;;;;;22.33;60.78;101265.91;7403719;19;1565;-62
2022/06/18 07:46:15;;;;;;;;;;;;;;;22.29;60.85;101269.06;7401693;19;1472;-63
2022/06/18 07:48:43;;;;;;;;;;;;;;;22.33;61.14;101298.25;7402797;19;1252;-63
2022/06/18 07:51:12;;;;;;;;;;;;;;;22.42;61.32;101261.50;7409435;19;1592;-66
2022/06/18 07:53:42;;;;;;;;;;;;;;;22.59;60.90;101284.16;7410306;19;1648;-69
2022/06/18 07:56:10;;;;;;;;;;;;;;;22.47;60.76;101271.84;7408542;19;1056;-68
2022/06/18 07:58:39;;;;;;;;;;;;;;;22.42;60.99;101273.16;7405524;19;1605;-70
2022/06/18 08:01:10;;;;;;;;;;;;;;;22.42;61.01;101273.16;7408305;19;1837;-71
2022/06/18 08:03:39;;;;;;;;;;;;;;;22.50;61.17;101288.59;7410958;19;1427;-66
2022/06/18 08:06:08;;;;;;;;;;;;;;;22.55;59.85;101278.19;7409237;19;1464;-70
2022/06/18 08:08:36;;;;;;;;;;;;;;;22.53;60.25;101272.09;7407644;19;1324;-72
2022/06/18 08:11:06;;;;;;;;;;;;;;;22.53;59.50;101282.03;7410682;19;1248;-62
2022/06/18 08:13:35;;;;;;;;;;;;;;;22.56;59.67;101255.66;7408797;19;1693;-63
2022/06/18 08:16:04;;;;;;;;;;;;;;;22.54;59.69;101257.66;7410210;19;1347;-66
2022/06/18 08:18:35;;;;;;;;;;;;;;;22.59;60.18;101266.13;7405775;19;1401;-61
2022/06/18 08:21:06;;;;;;;;;;;;;;;22.57;59.62;101276.22;7406161;19;1863;-62
2022/06/18 08:23:36;;;;;;;;;;;;;;;22.66;58.61;101263.72;7407025;19;1370;-67
2022/06/18 08:26:05;;;;;;;;;;;;;;;22.64;58.15;101258.47;7407942;19;1279;-63
2022/06/18 08:28:34;;;;;;;;;;;;;;;22.64;59.15;101244.97;7409070;19;1601;-63
2022/06/18 08:31:03;;;;;;;;;;;;;;;22.62;59.59;101251.50;7410032;19;1308;-62
2022/06/18 08:33:32;;;;;;;;;;;;;;;22.54;59.66;101251.38;7409699;19;1569;-63
2022/06/18 08:36:04;;;;;;;;;;;;;;;22.53;60.18;101253.25;7408986;19;1221;-63
2022/06/18 08:38:32;;;;;;;;;;;;;;;22.56;59.57;101266.44;7409051;19;1314;-63
2022/06/18 08:41:07;;;;;;;;;;;;;;;22.56;59.52;101261.03;7408583;19;1869;-60
2022/06/18 08:43:47;;;;;;;;;;;;;;;22.54;60.00;101263.03;7409210;19;1524;-64
2022/06/18 08:46:19;;;;;;;;;;;;;;;22.54;60.22;101249.56;7408846;19;1364;-61
2022/06/18 08:48:54;;;;;;;;;;;;;;;22.59;59.55;101251.81;7409014;19;1325;-61
2022/06/18 08:51:31;;;;;;;;;;;;;;;22.63;60.09;101248.66;7409349;19;1326;-65
2022/06/18 08:54:17;;;;;;;;;;;;;;;22.61;59.89;101244.41;7408392;19;1659;-60
2022/06/18 08:56:49;;;;;;;;;;;;;;;22.54;59.73;101241.47;7409775;19;1325;-66
2022/06/18 08:59:24;;;;;;;;;;;;;;;22.66;60.33;101239.44;7407411;19;1414;-61
2022/06/18 09:01:58;;;;;;;;;;;;;;;22.63;60.01;101243.28;7405460;19;1853;-63
2022/06/18 09:04:34;;;;;;;;;;;;;;;22.72;59.88;101256.84;7407166;19;1442;-64
2022/06/18 09:07:15;;;;;;;;;;;;;;;22.66;60.21;101249.34;7407636;19;1634;-61
2022/06/18 09:09:48;;;;;;;;;;;;;;;22.61;60.11;101253.34;7408475;19;1432;-61
2022/06/18 09:12:19;;;;;;;;;;;;;;;22.61;60.25;101256.03;7408232;19;1799;-63
2022/06/18 09:14:49;;;;;;;;;;;;;;;22.59;60.66;101239.16;7407015;19;1405;-61
2022/06/18 09:17:22;;;;;;;;;;;;;;;22.59;60.30;101265.28;7408062;19;1620;-61
2022/06/18 09:19:56;;;;;;;;;;;;;;;22.59;60.20;101249.94;7407437;19;1563;-63
2022/06/18 09:22:27;;;;;;;;;;;;;;;22.58;60.45;101253.66;7404915;19;1833;-64
2022/06/18 09:25:00;;;;;;;;;;;;;;;22.60;60.31;101234.63;7407526;19;1375;-61
2022/06/18 09:27:33;;;;;;;;;;;;;;;22.60;60.60;101234.63;7407247;19;1297;-63
2022/06/18 09:30:06;;;;;;;;;;;;;;;22.25;60.85;101174.19;7404791;19;1387;-67
2022/06/18 09:32:38;;;;;;;;;;;;;;;22.70;60.34;101254.34;7403976;19;1428;-62
2022/06/18 09:35:10;;;;;;;;;;;;;;;22.66;61.22;101244.84;7406164;19;1348;-60
2022/06/18 09:37:44;;;;;;;;;;;;;;;22.59;61.42;101243.72;7407688;19;1590;-60
2022/06/18 09:40:16;;;;;;;;;;;;;;;22.55;61.53;101236.94;7408013;19;1344;-62
2022/06/18 09:42:48;;;;;;;;;;;;;;;22.56;61.45;101241.31;7404817;19;1858;-62
2022/06/18 09:45:19;;;;;;;;;;;;;;;22.54;61.45;101237.91;7406463;19;1632;-60
2022/06/18 09:47:48;;;;;;;;;;;;;;;22.51;61.63;101230.97;7406965;19;1269;-61
2022/06/18 09:50:19;;;;;;;;;;;;;;;22.57;61.96;101229.53;7405970;19;1552;-60
2022/06/18 09:52:53;;;;;;;;;;;;;;;22.55;61.53;101234.22;7406188;19;1420;-60
2022/06/18 09:55:23;;;;;;;;;;;;;;;22.56;61.83;101223.31;7407409;19;1559;-62
2022/06/18 09:57:53;;;;;;;;;;;;;;;22.51;62.43;101225.59;7404945;19;1404;-62
2022/06/18 10:00:23;;;;;;;;;;;;;;;22.48;62.39;101208.84;7406692;19;1354;-59
2022/06/18 10:02:54;;;;;;;;;;;;;;;22.56;62.03;101219.75;7402070;19;1834;-64
2022/06/18 10:08:10;;;;;;;;;;;;;;;22.63;61.70;101234.34;7405633;19;1516;-65
2022/06/18 10:10:39;;;;;;;;;;;;;;;22.59;61.76;101228.38;7407455;19;976;-62
2022/06/18 10:13:13;;;;;;;;;;;;;;;22.57;61.97;101214.22;7402591;19;1686;-60
2022/06/18 10:15:41;;;;;;;;;;;;;;;22.54;62.53;101213.66;7402894;19;1654;-60
2022/06/18 10:18:17;;;;;;;;;;;;;;;22.53;62.14;101215.50;7405485;19;1617;-58
2022/06/18 10:20:49;;;;;;;;;;;;;;;22.69;61.87;101216.72;7405621;19;1865;-60
2022/06/18 10:23:29;;;;;;;;;;;;;;;22.61;61.52;101207.53;7405121;19;1318;-60
2022/06/18 10:26:02;;;;;;;;;;;;;;;22.61;61.86;101207.53;7407043;19;1242;-64
2022/06/18 10:28:36;;;;;;;;;;;;;;;22.60;62.22;101203.16;7404406;19;1491;-62
2022/06/18 10:31:11;;;;;;;;;;;;;;;22.61;61.54;101215.63;7404167;19;1426;-63
2022/06/18 10:33:43;;;;;;;;;;;;;;;22.58;61.75;101210.53;7404251;19;1334;-62
2022/06/18 10:36:19;;;;;;;;;;;;;;;22.57;61.99;101225.00;7395824;19;1426;-63
2022/06/18 10:39:03;;;;;;;;;;;;;;;22.57;61.90;101203.44;7404106;19;1368;-66
2022/06/18 10:41:33;;;;;;;;;;;;;;;22.59;61.80;101206.81;7405070;19;1854;-63
2022/06/18 10:44:07;;;;;;;;;;;;;;;22.63;61.94;101213.63;7404477;19;1330;-62
2022/06/18 10:46:36;;;;;;;;;;;;;;;22.57;61.74;101208.81;7404739;19;1422;-61
2022/06/18 10:49:06;;;;;;;;;;;;;;;22.57;62.18;101203.44;7404587;19;1351;-62
2022/06/18 10:51:42;;;;;;;;;;;;;;;22.55;61.91;101208.13;7404474;19;1594;-61
2022/06/18 10:54:14;;;;;;;;;;;;;;;22.55;61.65;101208.13;7404101;19;1298;-60
2022/06/18 10:56:49;;;;;;;;;;;;;;;22.54;62.12;101203.75;7403800;19;1361;-62
2022/06/18 10:59:17;;;;;;;;;;;;;;;22.58;61.56;101210.53;7403275;19;1304;-61
2022/06/18 11:01:47;;;;;;;;;;;;;;;22.56;61.62;101198.19;7400248;19;1868;-63
2022/06/18 11:04:22;;;;;;;;;;;;;;;22.56;61.34;101196.34;7404086;19;1292;-62
2022/06/18 11:06:52;;;;;;;;;;;;;;;22.61;61.48;101207.53;7405256;19;1075;-63
2022/06/18 11:09:26;;;;;;;;;;;;;;;22.59;61.49;101206.81;7404273;19;1893;-64
2022/06/18 11:11:57;;;;;;;;;;;;;;;22.55;61.64;101197.34;7403444;19;1367;-66
2022/06/18 11:14:25;;;;;;;;;;;;;;;22.55;61.52;101189.25;7401573;19;1400;-62
2022/06/18 11:16:55;;;;;;;;;;;;;;;22.52;61.75;101184.19;7402639;19;1256;-62
2022/06/18 11:19:29;;;;;;;;;;;;;;;22.55;61.47;101191.94;7402699;19;1452;-63
2022/06/18 11:21:58;;;;;;;;;;;;;;;22.56;61.50;101188.28;7402781;19;1856;-61
2022/06/18 11:24:32;;;;;;;;;;;;;;;22.54;61.57;101190.28;7402797;19;1219;-62
2022/06/18 11:27:02;;;;;;;;;;;;;;;22.55;61.29;101178.47;7403304;19;1289;-61
2022/06/18 11:29:34;;;;;;;;;;;;;;;22.57;61.04;101181.88;7401813;19;1343;-64
2022/06/18 11:32:04;;;;;;;;;;;;;;;22.55;61.23;101173.09;7402316;19;1786;-60
2022/06/18 11:34:36;;;;;;;;;;;;;;;22.55;61.33;101172.25;7404236;19;1339;-63
2022/06/18 11:37:14;;;;;;;;;;;;;;;22.55;61.32;101151.53;7400775;19;1325;-60
2022/06/18 11:39:45;;;;;;;;;;;;;;;22.55;61.39;101185.72;7398787;19;1692;-61
2022/06/18 11:42:17;;;;;;;;;;;;;;;22.55;60.92;101167.69;7401414;19;1849;-66
2022/06/18 11:44:49;;;;;;;;;;;;;;;22.56;60.74;101173.91;7402639;19;1342;-61
2022/06/18 11:47:21;;;;;;;;;;;;;;;22.58;60.99;101171.94;7402804;19;1628;-57
2022/06/18 11:49:57;;;;;;;;;;;;;;;22.55;61.02;101167.69;7403170;19;1343;-62
2022/06/18 11:52:29;;;;;;;;;;;;;;;22.58;60.84;101162.00;7402603;19;1660;-63
2022/06/18 11:55:05;;;;;;;;;;;;;;;22.57;60.71;101165.69;7403299;19;1457;-64
2022/06/18 11:57:38;;;;;;;;;;;;;;;22.64;60.53;101166.81;7402018;19;1256;-61
2022/06/18 12:00:09;;;;;;;;;;;;;;;22.65;60.32;101156.88;7403115;19;1284;-64
2022/06/18 12:02:50;;;;;;;;;;;;;;;22.64;60.25;101166.81;7401381;19;1868;-63
2022/06/18 12:05:22;;;;;;;;;;;;;;;22.62;60.61;101157.16;7402932;19;1319;-66
2022/06/18 12:07:52;;;;;;;;;;;;;;;22.61;60.41;101163.56;7403101;19;1659;-65
2022/06/18 12:10:29;;;;;;;;;;;;;;;22.59;60.63;101150.22;7400091;19;1357;-66
2022/06/18 12:13:05;;;;;;;;;;;;;;;22.59;60.45;101149.38;7400543;19;1689;-60
2022/06/18 12:15:38;;;;;;;;;;;;;;;22.66;59.85;101146.91;7400470;19;1472;-63
2022/06/18 12:18:10;;;;;;;;;;;;;;;22.64;59.89;101141.66;7402363;19;1290;-61
2022/06/18 12:20:51;;;;;;;;;;;;;;;22.73;59.75;101137.25;7400467;19;1274;-59
2022/06/18 12:23:22;;;;;;;;;;;;;;;22.78;59.92;101145.72;7400139;19;1846;-58
2022/06/18 12:25:57;;;;;;;;;;;;;;;22.83;58.62;101143.41;7400095;19;1546;-64
2022/06/18 12:28:32;;;;;;;;;;;;;;;22.87;59.41;101146.66;7400574;19;1628;-60
2022/06/18 12:31:03;;;;;;;;;;;;;;;22.85;60.19;101146.81;7401918;19;1391;-58
2022/06/18 12:33:34;;;;;;;;;;;;;;;22.76;60.44;101158.50;7401875;19;1632;-62
2022/06/18 12:36:06;;;;;;;;;;;;;;;22.84;60.39;101150.53;7393241;19;1444;-58
2022/06/18 12:38:38;;;;;;;;;;;;;;;22.75;60.73;101146.88;7409648;19;1542;-58
2022/06/18 12:41:12;;;;;;;;;;;;;;;22.73;60.89;101145.34;7407940;19;1516;-61
2022/06/18 12:43:47;;;;;;;;;;;;;;;22.80;61.17;101133.78;7406706;19;1879;-58
2022/06/18 12:46:20;;;;;;;;;;;;;;;22.74;60.63;101136.22;7408579;19;1545;-60
2022/06/18 12:48:53;;;;;;;;;;;;;;;22.68;60.75;101128.75;7408923;19;1559;-62
2022/06/18 12:51:27;;;;;;;;;;;;;;;22.67;60.92;101127.06;7407001;19;1342;-67
2022/06/18 12:54:04;;;;;;;;;;;;;;;22.60;60.38;101130.38;7408395;19;1276;-62
2022/06/18 12:56:37;;;;;;;;;;;;;;;22.68;60.24;101126.91;7408305;19;1372;-64
2022/06/18 12:59:16;;;;;;;;;;;;;;;22.80;60.30;101111.34;7407280;19;1683;-60
2022/06/18 13:01:51;;;;;;;;;;;;;;;22.69;58.87;101109.72;7406962;19;1855;-59
2022/06/18 13:04:30;;;;;;;;;;;;;;;22.59;60.57;101114.34;7409402;19;1524;-59
2022/06/18 13:07:01;;;;;;;;;;;;;;;22.41;59.37;101123.22;7408115;19;1245;-60
2022/06/18 13:09:38;;;;;;;;;;;;;;;22.57;59.51;101127.97;7406608;19;1208;-59
2022/06/18 13:12:16;;;;;;;;;;;;;;;22.51;59.15;101117.78;7406064;19;1597;-65
2022/06/18 13:14:56;;;;;;;;;;;;;;;22.43;58.96;101109.59;7405287;19;1568;-65
2022/06/18 13:17:26;;;;;;;;;;;;;;;22.44;59.66;101112.16;7406056;19;1554;-59
2022/06/18 13:19:58;;;;;;;;;;;;;;;22.44;60.03;101119.38;7405888;19;1571;-65
2022/06/18 13:22:29;;;;;;;;;;;;;;;22.44;59.35;101139.09;7405048;19;1822;-59